Terminal Aerodrome Forecast
Issued by NWS

Home | Current Version | Previous Version | Text Only | Print | Product List | Glossary On
Versions: 1 2 3 4 5 6 7 8 9 10 11 12 13 14 15 16 17 18 19
000
FTUS46 KLOX 272300
TAFSBP
TAF
KSBP 272336Z 2800/2824 31012KT P6SM SKC
     FM280400 32006KT P6SM SKC
     FM281100 00000KT 6SM BR SCT004
     FM281500 31006KT P6SM SKC
     FM282000 31012G18KT P6SM SKC=

USA.gov is the U.S. government's official web portal to all federal, state and local government web resources and services.